sensor_id;sensor_type;location;lat;lon;timestamp;pressure;altitude;pressure_sealevel;temperature;humidity
29461;BME280;16428;47.836;35.106;2023-07-13T00:02:05;101272.72;;;18.81;93.53
29461;BME280;16428;47.836;35.106;2023-07-13T00:04:32;101273.19;;;18.78;93.12
29461;BME280;16428;47.836;35.106;2023-07-13T00:07:00;101274.50;;;18.56;95.17
29461;BME280;16428;47.836;35.106;2023-07-13T00:09:27;101272.63;;;18.50;95.26
29461;BME280;16428;47.836;35.106;2023-07-13T00:11:56;101278.06;;;18.50;95.94
29461;BME280;16428;47.836;35.106;2023-07-13T00:14:26;101280.38;;;18.53;94.32
29461;BME280;16428;47.836;35.106;2023-07-13T00:16:55;101277.47;;;18.61;94.14
29461;BME280;16428;47.836;35.106;2023-07-13T00:19:22;101273.72;;;18.42;95.36
29461;BME280;16428;47.836;35.106;2023-07-13T00:21:49;101277.50;;;18.41;96.24
29461;BME280;16428;47.836;35.106;2023-07-13T00:24:18;101273.94;;;18.41;96.88
29461;BME280;16428;47.836;35.106;2023-07-13T00:26:51;101278.38;;;18.28;97.21
29461;BME280;16428;47.836;35.106;2023-07-13T00:29:18;101274.19;;;18.19;97.98
29461;BME280;16428;47.836;35.106;2023-07-13T00:31:48;101274.81;;;18.21;97.92
29461;BME280;16428;47.836;35.106;2023-07-13T00:34:15;101277.13;;;18.24;97.85
29461;BME280;16428;47.836;35.106;2023-07-13T00:36:42;101287.06;;;18.57;96.29
29461;BME280;16428;47.836;35.106;2023-07-13T00:39:09;101277.69;;;18.46;98.55
29461;BME280;16428;47.836;35.106;2023-07-13T00:41:36;101286.25;;;18.50;99.23
29461;BME280;16428;47.836;35.106;2023-07-13T00:44:04;101278.03;;;18.70;98.87
29461;BME280;16428;47.836;35.106;2023-07-13T00:46:33;101276.22;;;18.44;100.00
29461;BME280;16428;47.836;35.106;2023-07-13T00:49:05;101275.88;;;18.20;100.00
29461;BME280;16428;47.836;35.106;2023-07-13T00:51:40;101288.44;;;18.21;100.00
29461;BME280;16428;47.836;35.106;2023-07-13T00:54:13;101282.59;;;18.18;100.00
29461;BME280;16428;47.836;35.106;2023-07-13T00:56:43;101286.16;;;18.12;100.00
29461;BME280;16428;47.836;35.106;2023-07-13T00:59:13;101280.09;;;18.16;100.00
29461;BME280;16428;47.836;35.106;2023-07-13T01:01:45;101283.41;;;18.32;100.00
29461;BME280;16428;47.836;35.106;2023-07-13T01:04:13;101279.47;;;18.14;100.00
29461;BME280;16428;47.836;35.106;2023-07-13T01:06:42;101294.75;;;17.96;100.00
29461;BME280;16428;47.836;35.106;2023-07-13T01:09:11;101301.88;;;17.90;100.00
29461;BME280;16428;47.836;35.106;2023-07-13T01:11:40;101296.00;;;17.93;100.00
29461;BME280;16428;47.836;35.106;2023-07-13T01:14:08;101291.66;;;17.85;100.00
29461;BME280;16428;47.836;35.106;2023-07-13T01:16:36;101301.88;;;17.90;100.00
29461;BME280;16428;47.836;35.106;2023-07-13T01:19:34;101309.59;;;18.13;99.04
29461;BME280;16428;47.836;35.106;2023-07-13T01:22:09;101314.00;;;17.94;100.00
29461;BME280;16428;47.836;35.106;2023-07-13T01:24:42;101322.34;;;18.12;100.00
29461;BME280;16428;47.836;35.106;2023-07-13T01:27:11;101320.28;;;18.01;100.00
29461;BME280;16428;47.836;35.106;2023-07-13T01:29:40;101324.00;;;18.13;100.00
29461;BME280;16428;47.836;35.106;2023-07-13T01:32:15;101319.66;;;17.99;100.00
29461;BME280;16428;47.836;35.106;2023-07-13T01:34:43;101323.22;;;17.80;100.00
29461;BME280;16428;47.836;35.106;2023-07-13T01:37:14;101317.13;;;17.78;100.00
29461;BME280;16428;47.836;35.106;2023-07-13T01:39:42;101318.63;;;17.67;100.00
29461;BME280;16428;47.836;35.106;2023-07-13T01:42:09;101320.91;;;17.70;100.00
29461;BME280;16428;47.836;35.106;2023-07-13T01:44:37;101321.09;;;17.95;100.00
29461;BME280;16428;47.836;35.106;2023-07-13T01:47:04;101333.44;;;17.65;100.00
29461;BME280;16428;47.836;35.106;2023-07-13T01:49:32;101330.72;;;17.65;100.00
29461;BME280;16428;47.836;35.106;2023-07-13T01:51:59;101339.25;;;17.62;100.00
29461;BME280;16428;47.836;35.106;2023-07-13T01:54:26;101340.94;;;17.49;100.00
29461;BME280;16428;47.836;35.106;2023-07-13T01:56:53;101328.38;;;17.48;100.00
29461;BME280;16428;47.836;35.106;2023-07-13T01:59:21;101330.47;;;17.46;100.00
29461;BME280;16428;47.836;35.106;2023-07-13T02:01:47;101344.91;;;17.40;100.00
29461;BME280;16428;47.836;35.106;2023-07-13T02:04:15;101348.44;;;17.34;100.00
29461;BME280;16428;47.836;35.106;2023-07-13T02:06:42;101341.94;;;17.35;100.00
29461;BME280;16428;47.836;35.106;2023-07-13T02:09:09;101352.19;;;17.46;100.00
29461;BME280;16428;47.836;35.106;2023-07-13T02:11:39;101351.84;;;17.76;100.00
29461;BME280;16428;47.836;35.106;2023-07-13T02:14:06;101343.66;;;17.63;100.00
29461;BME280;16428;47.836;35.106;2023-07-13T02:16:34;101348.25;;;17.62;100.00
29461;BME280;16428;47.836;35.106;2023-07-13T02:19:02;101348.84;;;17.44;100.00
29461;BME280;16428;47.836;35.106;2023-07-13T02:21:29;101355.69;;;17.27;100.00
29461;BME280;16428;47.836;35.106;2023-07-13T02:23:57;101352.78;;;17.22;100.00
29461;BME280;16428;47.836;35.106;2023-07-13T02:26:24;101353.63;;;17.29;100.00
29461;BME280;16428;47.836;35.106;2023-07-13T02:28:53;101351.53;;;17.25;100.00
29461;BME280;16428;47.836;35.106;2023-07-13T02:31:20;101352.84;;;17.48;100.00
29461;BME280;16428;47.836;35.106;2023-07-13T02:33:47;101360.97;;;17.42;100.00
29461;BME280;16428;47.836;35.106;2023-07-13T02:36:14;101346.56;;;17.41;100.00
29461;BME280;16428;47.836;35.106;2023-07-13T02:38:43;101354.91;;;17.46;100.00
29461;BME280;16428;47.836;35.106;2023-07-13T02:41:10;101361.59;;;17.37;100.00
29461;BME280;16428;47.836;35.106;2023-07-13T02:43:37;101362.88;;;17.41;100.00
29461;BME280;16428;47.836;35.106;2023-07-13T02:46:05;101365.16;;;17.44;100.00
29461;BME280;16428;47.836;35.106;2023-07-13T02:48:36;101360.56;;;17.51;100.00
29461;BME280;16428;47.836;35.106;2023-07-13T02:51:05;101362.66;;;17.49;100.00
29461;BME280;16428;47.836;35.106;2023-07-13T02:53:32;101367.22;;;17.42;100.00
29461;BME280;16428;47.836;35.106;2023-07-13T02:55:59;101376.25;;;17.63;100.00
29461;BME280;16428;47.836;35.106;2023-07-13T02:58:26;101375.47;;;17.69;100.00
29461;BME280;16428;47.836;35.106;2023-07-13T03:00:55;101364.97;;;17.59;100.00
29461;BME280;16428;47.836;35.106;2023-07-13T03:03:22;101370.44;;;17.72;100.00
29461;BME280;16428;47.836;35.106;2023-07-13T03:05:58;101362.28;;;17.66;100.00
29461;BME280;16428;47.836;35.106;2023-07-13T03:08:26;101359.94;;;17.63;100.00
29461;BME280;16428;47.836;35.106;2023-07-13T03:11:06;101361.22;;;17.53;100.00
29461;BME280;16428;47.836;35.106;2023-07-13T03:13:34;101375.84;;;17.52;100.00
29461;BME280;16428;47.836;35.106;2023-07-13T03:16:01;101365.44;;;17.69;100.00
29461;BME280;16428;47.836;35.106;2023-07-13T03:18:28;101359.56;;;17.72;100.00
29461;BME280;16428;47.836;35.106;2023-07-13T03:20:55;101356.66;;;17.93;100.00
29461;BME280;16428;47.836;35.106;2023-07-13T03:23:23;101354.75;;;18.14;100.00
29461;BME280;16428;47.836;35.106;2023-07-13T03:26:03;101349.56;;;17.99;100.00
29461;BME280;16428;47.836;35.106;2023-07-13T03:28:30;101363.56;;;17.96;100.00
29461;BME280;16428;47.836;35.106;2023-07-13T03:31:03;101366.69;;;17.86;100.00
29461;BME280;16428;47.836;35.106;2023-07-13T03:33:30;101361.66;;;17.90;100.00
29461;BME280;16428;47.836;35.106;2023-07-13T03:35:59;101368.38;;;18.01;100.00
29461;BME280;16428;47.836;35.106;2023-07-13T03:38:26;101372.97;;;18.13;100.00
29461;BME280;16428;47.836;35.106;2023-07-13T03:40:53;101369.00;;;18.16;100.00
29461;BME280;16428;47.836;35.106;2023-07-13T03:43:21;101372.94;;;18.20;100.00
29461;BME280;16428;47.836;35.106;2023-07-13T03:45:49;101385.50;;;18.27;100.00
29461;BME280;16428;47.836;35.106;2023-07-13T03:48:16;101386.31;;;18.48;100.00
29461;BME280;16428;47.836;35.106;2023-07-13T03:50:43;101395.50;;;18.60;100.00
29461;BME280;16428;47.836;35.106;2023-07-13T03:53:10;101388.56;;;18.71;100.00
29461;BME280;16428;47.836;35.106;2023-07-13T03:55:38;101392.06;;;18.84;100.00
29461;BME280;16428;47.836;35.106;2023-07-13T04:00:55;101399.22;;;18.79;100.00
29461;BME280;16428;47.836;35.106;2023-07-13T04:03:24;101403.09;;;19.03;100.00
29461;BME280;16428;47.836;35.106;2023-07-13T04:05:51;101413.38;;;19.01;100.00
29461;BME280;16428;47.836;35.106;2023-07-13T04:08:19;101416.28;;;19.06;100.00
29461;BME280;16428;47.836;35.106;2023-07-13T04:10:46;101421.13;;;19.04;100.00
29461;BME280;16428;47.836;35.106;2023-07-13T04:13:13;101415.94;;;18.89;100.00
29461;BME280;16428;47.836;35.106;2023-07-13T04:15:41;101415.00;;;19.15;100.00
29461;BME280;16428;47.836;35.106;2023-07-13T04:18:08;101421.03;;;19.23;100.00
29461;BME280;16428;47.836;35.106;2023-07-13T04:20:36;101429.56;;;19.33;100.00
29461;BME280;16428;47.836;35.106;2023-07-13T04:23:03;101432.91;;;19.36;100.00
29461;BME280;16428;47.836;35.106;2023-07-13T04:25:30;101433.44;;;19.57;100.00
29461;BME280;16428;47.836;35.106;2023-07-13T04:27:57;101419.25;;;19.42;100.00
29461;BME280;16428;47.836;35.106;2023-07-13T04:30:26;101415.13;;;19.71;100.00
29461;BME280;16428;47.836;35.106;2023-07-13T04:32:53;101415.25;;;19.83;100.00
29461;BME280;16428;47.836;35.106;2023-07-13T04:35:20;101417.19;;;19.76;100.00
29461;BME280;16428;47.836;35.106;2023-07-13T04:37:49;101417.09;;;19.89;100.00
29461;BME280;16428;47.836;35.106;2023-07-13T04:40:17;101421.38;;;20.03;100.00
29461;BME280;16428;47.836;35.106;2023-07-13T04:42:46;101421.66;;;19.95;100.00
29461;BME280;16428;47.836;35.106;2023-07-13T04:45:14;101420.53;;;20.02;100.00
29461;BME280;16428;47.836;35.106;2023-07-13T04:47:42;101422.78;;;20.12;100.00
29461;BME280;16428;47.836;35.106;2023-07-13T04:50:10;101415.91;;;20.03;100.00
29461;BME280;16428;47.836;35.106;2023-07-13T04:52:43;101417.78;;;20.09;100.00
29461;BME280;16428;47.836;35.106;2023-07-13T04:55:10;101423.44;;;20.32;100.00
29461;BME280;16428;47.836;35.106;2023-07-13T04:57:37;101423.19;;;20.41;98.35
29461;BME280;16428;47.836;35.106;2023-07-13T05:00:05;101415.75;;;20.48;99.02
29461;BME280;16428;47.836;35.106;2023-07-13T05:02:33;101423.75;;;20.67;97.25
29461;BME280;16428;47.836;35.106;2023-07-13T05:05:01;101418.69;;;20.89;94.09
29461;BME280;16428;47.836;35.106;2023-07-13T05:07:31;101422.47;;;21.06;91.78
29461;BME280;16428;47.836;35.106;2023-07-13T05:09:59;101414.19;;;20.95;93.63
29461;BME280;16428;47.836;35.106;2023-07-13T05:12:27;101418.69;;;20.89;91.73
29461;BME280;16428;47.836;35.106;2023-07-13T05:14:54;101425.69;;;21.22;90.21
29461;BME280;16428;47.836;35.106;2023-07-13T05:17:21;101418.69;;;20.89;91.47
29461;BME280;16428;47.836;35.106;2023-07-13T05:19:49;101429.25;;;21.22;90.37
29461;BME280;16428;47.836;35.106;2023-07-13T05:22:16;101432.75;;;21.41;88.16
29461;BME280;16428;47.836;35.106;2023-07-13T05:24:44;101429.72;;;21.49;86.10
29461;BME280;16428;47.836;35.106;2023-07-13T05:27:11;101429.78;;;21.42;86.25
29461;BME280;16428;47.836;35.106;2023-07-13T05:29:39;101422.00;;;21.58;85.84
29461;BME280;16428;47.836;35.106;2023-07-13T05:32:06;101433.31;;;21.61;84.52
29461;BME280;16428;47.836;35.106;2023-07-13T05:34:35;101435.16;;;21.79;83.11
29461;BME280;16428;47.836;35.106;2023-07-13T05:37:02;101437.38;;;21.70;83.03
29461;BME280;16428;47.836;35.106;2023-07-13T05:39:30;101433.66;;;21.95;81.41
29461;BME280;16428;47.836;35.106;2023-07-13T05:41:57;101435.59;;;22.06;82.11
29461;BME280;16428;47.836;35.106;2023-07-13T05:44:24;101430.19;;;21.88;81.28
29461;BME280;16428;47.836;35.106;2023-07-13T05:46:51;101435.38;;;22.19;81.77
29461;BME280;16428;47.836;35.106;2023-07-13T05:49:19;101431.25;;;22.28;81.66
29461;BME280;16428;47.836;35.106;2023-07-13T05:51:45;101425.16;;;22.50;80.99
29461;BME280;16428;47.836;35.106;2023-07-13T05:54:13;101420.88;;;22.54;79.74
29461;BME280;16428;47.836;35.106;2023-07-13T05:56:40;101426.34;;;22.54;76.56
29461;BME280;16428;47.836;35.106;2023-07-13T05:59:07;101420.16;;;22.70;75.30
29461;BME280;16428;47.836;35.106;2023-07-13T06:01:34;101425.28;;;22.78;75.50
29461;BME280;16428;47.836;35.106;2023-07-13T06:04:02;101417.44;;;22.82;76.08
29461;BME280;16428;47.836;35.106;2023-07-13T06:06:29;101425.84;;;22.92;75.60
29461;BME280;16428;47.836;35.106;2023-07-13T06:08:56;101431.66;;;23.07;73.53
29461;BME280;16428;47.836;35.106;2023-07-13T06:11:26;101419.31;;;22.93;71.21
29461;BME280;16428;47.836;35.106;2023-07-13T06:13:54;101416.63;;;23.09;70.81
29461;BME280;16428;47.836;35.106;2023-07-13T06:16:22;101420.44;;;23.20;71.26
29461;BME280;16428;47.836;35.106;2023-07-13T06:18:49;101428.38;;;23.33;67.68
29461;BME280;16428;47.836;35.106;2023-07-13T06:21:19;101415.03;;;23.37;69.93
29461;BME280;16428;47.836;35.106;2023-07-13T06:23:50;101412.59;;;23.52;69.26
29461;BME280;16428;47.836;35.106;2023-07-13T06:26:19;101414.66;;;23.33;68.94
29461;BME280;16428;47.836;35.106;2023-07-13T06:28:46;101418.16;;;23.57;70.02
29461;BME280;16428;47.836;35.106;2023-07-13T06:31:14;101421.63;;;23.81;70.52
29461;BME280;16428;47.836;35.106;2023-07-13T06:33:43;101429.88;;;23.98;67.08
29461;BME280;16428;47.836;35.106;2023-07-13T06:36:11;101418.47;;;24.06;69.82
29461;BME280;16428;47.836;35.106;2023-07-13T06:38:39;101421.00;;;24.24;68.66
29461;BME280;16428;47.836;35.106;2023-07-13T06:41:07;101423.06;;;24.34;67.98
29461;BME280;16428;47.836;35.106;2023-07-13T06:43:35;101423.00;;;24.29;68.13
29461;BME280;16428;47.836;35.106;2023-07-13T06:46:02;101429.63;;;24.33;67.08
29461;BME280;16428;47.836;35.106;2023-07-13T06:48:30;101433.09;;;24.62;66.62
29461;BME280;16428;47.836;35.106;2023-07-13T06:50:57;101419.06;;;24.80;66.36
29461;BME280;16428;47.836;35.106;2023-07-13T06:53:25;101418.56;;;24.83;64.15
29461;BME280;16428;47.836;35.106;2023-07-13T06:55:52;101419.88;;;24.59;60.90
29461;BME280;16428;47.836;35.106;2023-07-13T06:58:19;101412.56;;;24.47;62.00
29461;BME280;16428;47.836;35.106;2023-07-13T07:00:50;101423.19;;;24.61;62.42
29461;BME280;16428;47.836;35.106;2023-07-13T07:03:18;101420.88;;;24.52;59.84
29461;BME280;16428;47.836;35.106;2023-07-13T07:05:46;101418.22;;;24.79;61.92
29461;BME280;16428;47.836;35.106;2023-07-13T07:08:13;101415.06;;;24.87;58.44
29461;BME280;16428;47.836;35.106;2023-07-13T07:10:41;101413.16;;;25.10;58.49
29461;BME280;16428;47.836;35.106;2023-07-13T07:13:08;101401.47;;;25.19;58.24
29461;BME280;16428;47.836;35.106;2023-07-13T07:15:38;101413.00;;;25.43;57.56
29461;BME280;16428;47.836;35.106;2023-07-13T07:18:05;101408.31;;;25.44;55.19
29461;BME280;16428;47.836;35.106;2023-07-13T07:20:32;101410.97;;;25.61;54.47
29461;BME280;16428;47.836;35.106;2023-07-13T07:23:00;101400.97;;;25.76;54.37
29461;BME280;16428;47.836;35.106;2023-07-13T07:25:27;101404.16;;;25.63;56.07
29461;BME280;16428;47.836;35.106;2023-07-13T07:27:58;101397.59;;;25.69;54.66
29461;BME280;16428;47.836;35.106;2023-07-13T07:30:30;101396.31;;;25.77;54.46
29461;BME280;16428;47.836;35.106;2023-07-13T07:33:00;101401.56;;;25.56;55.01
29461;BME280;16428;47.836;35.106;2023-07-13T07:35:32;101400.47;;;25.79;53.81
29461;BME280;16428;47.836;35.106;2023-07-13T07:38:05;101398.88;;;25.88;53.19
29461;BME280;16428;47.836;35.106;2023-07-13T07:40:36;101384.53;;;25.81;53.08
29461;BME280;16428;47.836;35.106;2023-07-13T07:43:08;101386.72;;;25.84;52.67
29461;BME280;16428;47.836;35.106;2023-07-13T07:45:37;101383.69;;;26.18;52.04
29461;BME280;16428;47.836;35.106;2023-07-13T07:48:06;101383.22;;;26.26;53.51
29461;BME280;16428;47.836;35.106;2023-07-13T07:50:34;101382.03;;;26.54;52.08
29461;BME280;16428;47.836;35.106;2023-07-13T07:53:01;101384.72;;;26.44;50.20
29461;BME280;16428;47.836;35.106;2023-07-13T07:55:29;101387.50;;;26.49;50.28
29461;BME280;16428;47.836;35.106;2023-07-13T07:57:59;101383.91;;;26.48;51.17
29461;BME280;16428;47.836;35.106;2023-07-13T08:00:29;101385.09;;;26.57;49.82
29461;BME280;16428;47.836;35.106;2023-07-13T08:03:18;101384.03;;;26.74;49.12
29461;BME280;16428;47.836;35.106;2023-07-13T08:05:48;101379.91;;;26.71;47.62
29461;BME280;16428;47.836;35.106;2023-07-13T08:08:35;101370.88;;;26.86;49.80
29461;BME280;16428;47.836;35.106;2023-07-13T08:11:08;101369.13;;;26.65;48.20
29461;BME280;16428;47.836;35.106;2023-07-13T08:13:40;101378.66;;;26.94;48.79
29461;BME280;16428;47.836;35.106;2023-07-13T08:16:07;101380.34;;;27.05;47.52
29461;BME280;16428;47.836;35.106;2023-07-13T08:18:35;101379.28;;;27.21;49.34
29461;BME280;16428;47.836;35.106;2023-07-13T08:21:06;101372.16;;;27.30;46.64
29461;BME280;16428;47.836;35.106;2023-07-13T08:23:35;101380.47;;;27.46;47.51
29461;BME280;16428;47.836;35.106;2023-07-13T08:26:02;101370.56;;;27.50;46.57
29461;BME280;16428;47.836;35.106;2023-07-13T08:28:33;101370.31;;;27.56;46.57
29461;BME280;16428;47.836;35.106;2023-07-13T08:31:05;101379.97;;;27.74;46.56
29461;BME280;16428;47.836;35.106;2023-07-13T08:33:35;101378.88;;;27.70;45.09
29461;BME280;16428;47.836;35.106;2023-07-13T08:36:03;101375.53;;;27.58;45.91
29461;BME280;16428;47.836;35.106;2023-07-13T08:38:30;101383.81;;;27.68;46.63
29461;BME280;16428;47.836;35.106;2023-07-13T08:40:58;101384.66;;;27.74;46.17
29461;BME280;16428;47.836;35.106;2023-07-13T08:43:28;101384.03;;;27.51;44.54
29461;BME280;16428;47.836;35.106;2023-07-13T08:46:18;101392.13;;;27.63;45.88
29461;BME280;16428;47.836;35.106;2023-07-13T08:48:52;101391.59;;;27.76;44.04
29461;BME280;16428;47.836;35.106;2023-07-13T08:54:04;101392.16;;;28.24;44.22
29461;BME280;16428;47.836;35.106;2023-07-13T08:56:33;101395.97;;;28.13;44.31
29461;BME280;16428;47.836;35.106;2023-07-13T08:59:04;101389.63;;;28.32;43.04
29461;BME280;16428;47.836;35.106;2023-07-13T09:04:25;101383.25;;;28.42;42.70
29461;BME280;16428;47.836;35.106;2023-07-13T09:12:31;101388.19;;;28.65;43.17
29461;BME280;16428;47.836;35.106;2023-07-13T09:15:03;101392.00;;;28.75;41.96
29461;BME280;16428;47.836;35.106;2023-07-13T09:17:41;101387.59;;;28.84;41.44
29461;BME280;16428;47.836;35.106;2023-07-13T09:20:19;101384.81;;;28.74;39.99
29461;BME280;16428;47.836;35.106;2023-07-13T09:22:49;101389.00;;;28.66;41.47
29461;BME280;16428;47.836;35.106;2023-07-13T09:25:29;101382.63;;;28.86;42.42
29461;BME280;16428;47.836;35.106;2023-07-13T09:28:15;101385.97;;;28.67;40.95
29461;BME280;16428;47.836;35.106;2023-07-13T09:30:51;101388.16;;;28.86;41.04
29461;BME280;16428;47.836;35.106;2023-07-13T09:33:21;101389.78;;;28.77;40.78
29461;BME280;16428;47.836;35.106;2023-07-13T09:35:50;101388.16;;;28.70;40.67
29461;BME280;16428;47.836;35.106;2023-07-13T09:38:18;101390.34;;;28.84;41.75
29461;BME280;16428;47.836;35.106;2023-07-13T09:44:12;101391.06;;;29.10;40.02
29461;BME280;16428;47.836;35.106;2023-07-13T09:46:46;101386.84;;;29.22;40.13
29461;BME280;16428;47.836;35.106;2023-07-13T09:49:16;101389.50;;;29.37;41.19
29461;BME280;16428;47.836;35.106;2023-07-13T09:51:44;101383.88;;;29.58;40.43
29461;BME280;16428;47.836;35.106;2023-07-13T09:54:23;101387.09;;;29.75;40.70
29461;BME280;16428;47.836;35.106;2023-07-13T09:56:59;101379.81;;;29.79;40.35
29461;BME280;16428;47.836;35.106;2023-07-13T09:59:40;101380.03;;;29.93;39.32
29461;BME280;16428;47.836;35.106;2023-07-13T10:02:31;101378.59;;;29.95;38.89
29461;BME280;16428;47.836;35.106;2023-07-13T10:05:04;101384.09;;;30.05;37.91
29461;BME280;16428;47.836;35.106;2023-07-13T10:07:38;101379.06;;;30.36;38.41
29461;BME280;16428;47.836;35.106;2023-07-13T10:10:16;101389.78;;;30.19;37.21
29461;BME280;16428;47.836;35.106;2023-07-13T10:12:44;101377.38;;;30.12;38.23
29461;BME280;16428;47.836;35.106;2023-07-13T10:15:30;101372.00;;;29.91;39.07
29461;BME280;16428;47.836;35.106;2023-07-13T10:17:58;101369.59;;;30.14;38.84
29461;BME280;16428;47.836;35.106;2023-07-13T10:20:26;101351.38;;;30.07;38.27
29461;BME280;16428;47.836;35.106;2023-07-13T10:22:59;101354.22;;;30.55;38.57
29461;BME280;16428;47.836;35.106;2023-07-13T10:25:33;101340.63;;;30.77;37.60
29461;BME280;16428;47.836;35.106;2023-07-13T10:28:19;101345.00;;;30.84;37.28
29461;BME280;16428;47.836;35.106;2023-07-13T10:30:49;101338.53;;;30.69;38.30
29461;BME280;16428;47.836;35.106;2023-07-13T10:33:18;101328.34;;;30.84;37.79
29461;BME280;16428;47.836;35.106;2023-07-13T10:35:45;101318.34;;;31.25;37.02
29461;BME280;16428;47.836;35.106;2023-07-13T10:38:19;101324.66;;;31.31;37.48
29461;BME280;16428;47.836;35.106;2023-07-13T10:41:05;101334.00;;;31.35;35.71
29461;BME280;16428;47.836;35.106;2023-07-13T10:43:53;101323.06;;;31.43;34.91
29461;BME280;16428;47.836;35.106;2023-07-13T10:46:24;101329.63;;;31.47;35.03
29461;BME280;16428;47.836;35.106;2023-07-13T10:48:58;101320.88;;;31.40;35.39
29461;BME280;16428;47.836;35.106;2023-07-13T10:51:28;101327.09;;;31.32;36.02
29461;BME280;16428;47.836;35.106;2023-07-13T10:54:16;101321.66;;;31.03;37.25
29461;BME280;16428;47.836;35.106;2023-07-13T10:57:34;101324.78;;;31.39;36.85
29461;BME280;16428;47.836;35.106;2023-07-13T10:59:36;101318.38;;;31.76;37.51
29461;BME280;16428;47.836;35.106;2023-07-13T11:02:09;101321.03;;;31.81;36.34
29461;BME280;16428;47.836;35.106;2023-07-13T11:04:44;101320.16;;;31.16;35.12
29461;BME280;16428;47.836;35.106;2023-07-13T11:07:30;101324.44;;;30.85;36.48
29461;BME280;16428;47.836;35.106;2023-07-13T11:10:04;101315.59;;;30.83;36.63
29461;BME280;16428;47.836;35.106;2023-07-13T11:12:50;101312.19;;;30.67;37.32
29461;BME280;16428;47.836;35.106;2023-07-13T11:15:31;101317.41;;;30.92;36.52
29461;BME280;16428;47.836;35.106;2023-07-13T11:18:04;101305.22;;;31.12;36.05
29461;BME280;16428;47.836;35.106;2023-07-13T11:20:37;101301.34;;;31.08;36.55
29461;BME280;16428;47.836;35.106;2023-07-13T11:23:09;101299.88;;;30.97;36.69
29461;BME280;16428;47.836;35.106;2023-07-13T11:25:44;101302.63;;;30.97;36.66
29461;BME280;16428;47.836;35.106;2023-07-13T11:36:15;101305.34;;;30.59;37.45
29461;BME280;16428;47.836;35.106;2023-07-13T11:41:25;101296.38;;;30.20;37.34
29461;BME280;16428;47.836;35.106;2023-07-13T11:43:54;101294.84;;;30.32;37.27
29461;BME280;16428;47.836;35.106;2023-07-13T11:46:24;101291.44;;;30.64;37.04
29461;BME280;16428;47.836;35.106;2023-07-13T11:48:53;101285.00;;;30.88;36.07
29461;BME280;16428;47.836;35.106;2023-07-13T11:51:28;101287.28;;;31.23;35.63
29461;BME280;16428;47.836;35.106;2023-07-13T11:54:01;101278.81;;;31.66;35.22
29461;BME280;16428;47.836;35.106;2023-07-13T11:56:30;101271.28;;;31.99;35.20
29461;BME280;16428;47.836;35.106;2023-07-13T11:59:04;101269.47;;;32.35;34.77
29461;BME280;16428;47.836;35.106;2023-07-13T12:01:40;101258.72;;;32.56;34.79
29461;BME280;16428;47.836;35.106;2023-07-13T12:06:55;101269.84;;;32.01;35.14
29461;BME280;16428;47.836;35.106;2023-07-13T12:09:26;101267.38;;;31.35;36.63
29461;BME280;16428;47.836;35.106;2023-07-13T12:11:56;101255.25;;;31.31;37.22
29461;BME280;16428;47.836;35.106;2023-07-13T12:14:24;101259.72;;;30.89;37.23
29461;BME280;16428;47.836;35.106;2023-07-13T12:16:53;101249.97;;;30.73;36.42
29461;BME280;16428;47.836;35.106;2023-07-13T12:19:24;101236.88;;;30.78;37.74
29461;BME280;16428;47.836;35.106;2023-07-13T12:21:58;101236.03;;;31.67;36.37
29461;BME280;16428;47.836;35.106;2023-07-13T12:24:26;101230.53;;;32.49;35.33
29461;BME280;16428;47.836;35.106;2023-07-13T12:27:04;101221.91;;;32.37;34.80
29461;BME280;16428;47.836;35.106;2023-07-13T12:29:33;101220.94;;;32.00;34.46
29461;BME280;16428;47.836;35.106;2023-07-13T12:32:00;101214.81;;;31.25;35.10
29461;BME280;16428;47.836;35.106;2023-07-13T12:34:27;101205.25;;;30.80;36.77
29461;BME280;16428;47.836;35.106;2023-07-13T12:36:58;101204.59;;;31.01;36.88
29461;BME280;16428;47.836;35.106;2023-07-13T12:39:43;101205.31;;;30.93;36.67
29461;BME280;16428;47.836;35.106;2023-07-13T12:42:25;101197.00;;;31.12;37.42
29461;BME280;16428;47.836;35.106;2023-07-13T12:45:36;101191.53;;;31.39;36.42
29461;BME280;16428;47.836;35.106;2023-07-13T12:48:05;101197.59;;;32.01;36.59
29461;BME280;16428;47.836;35.106;2023-07-13T12:50:40;101194.72;;;32.83;35.32
29461;BME280;16428;47.836;35.106;2023-07-13T12:53:19;101199.78;;;32.81;35.09
29461;BME280;16428;47.836;35.106;2023-07-13T12:55:58;101209.00;;;32.91;33.57
29461;BME280;16428;47.836;35.106;2023-07-13T12:58:30;101195.72;;;33.10;32.84
29461;BME280;16428;47.836;35.106;2023-07-13T13:01:01;101183.50;;;32.61;33.48
29461;BME280;16428;47.836;35.106;2023-07-13T13:03:37;101186.47;;;31.74;34.82
29461;BME280;16428;47.836;35.106;2023-07-13T13:08:36;101177.34;;;31.55;34.91
29461;BME280;16428;47.836;35.106;2023-07-13T13:11:04;101171.03;;;31.68;35.28
29461;BME280;16428;47.836;35.106;2023-07-13T13:13:31;101174.00;;;31.25;36.28
29461;BME280;16428;47.836;35.106;2023-07-13T13:16:11;101173.38;;;30.77;37.36
29461;BME280;16428;47.836;35.106;2023-07-13T13:18:39;101172.50;;;30.63;37.79
29461;BME280;16428;47.836;35.106;2023-07-13T13:21:09;101171.59;;;30.67;38.83
29461;BME280;16428;47.836;35.106;2023-07-13T13:23:36;101176.72;;;31.44;36.77
29461;BME280;16428;47.836;35.106;2023-07-13T13:26:09;101178.22;;;31.96;36.53
29461;BME280;16428;47.836;35.106;2023-07-13T13:28:38;101173.69;;;32.00;35.97